Terminal Aerodrome Forecast
Issued by NWS

Home | Current Version | Previous Version | Text Only | Print | Product List | Glossary On
Versions: 1 2 3 4 5 6 7 8 9 10 11 12 13 14
000
FTUS45 KABQ 232300
TAFFMN
TAF
KFMN 232332Z 2400/2424 16010KT P6SM SCT090 SCT150
     FM240100 15010KT P6SM VCSH SCT090 BKN120
     FM240300 10008KT P6SM FEW100 SCT150
     FM241900 21011KT P6SM FEW120 SCT200
     FM242200 26010KT P6SM VCTS SCT100CB=

USA.gov is the U.S. government's official web portal to all federal, state and local government web resources and services.